Impacts TAF Board
For situational awareness. Not to be used for flight planning purposes.
IDs:

KASE - Aspen/Pitkin Cnty, CO, US

Issued at 0105 UTC 06 Dec 2019
Updated at 0140 UTC 06 Dec 2019
Potential Impact None Slight Moderate High
Time<<06/14Z 06/15Z 06/16Z 06/17Z 06/18Z 06/19Z 06/20Z 06/21Z 06/22Z 06/23Z 07/00Z 07/01Z 07/02Z>>
Type PRVL PRVL PRVL PRVL PRVL PRVL PRVL PRVL PRVL PRVL
VIS >6 >6 >6 >6 >6 >6 >6 >6 >6 >6
CIG 50 50 50 -- -- -- -- -- -- --
Cover OVC OVC OVC SCT SCT SCT SCT SCT SCT SCT
FltCat VFR VFR VFR VFR VFR VFR VFR VFR VFR VFR
WX -- -- -- -- -- -- -- -- -- --
WDir 200 200 200 320 320 320 320 320 320 320
WSpd 3 3 3 2 2 2 2 2 2 2
WGst -- -- -- -- -- -- -- -- -- --
Raw TAF
KASE 060105Z 0601/0624 VRB03KT P6SM BKN027 OVC050
  TEMPO 0602/0606 SCT027 OVC050
  FM060600 20003KT P6SM SCT030 OVC050
  FM061700 32002KT P6SM SCT250


METAR Board
Radar Display
Forecast Discussion
For situational awareness. Not to be used for flight planning purposes.